Time;durP1;ratioP1;P1;durP2;ratioP2;P2;SDS_P1;SDS_P2;PMS_P1;PMS_P2;Temp;Humidity;BMP_temperature;BMP_pressure;BME280_temperature;BME280_humidity;BME280_pressure;Samples;Min_cycle;Max_cycle;Signal;HPM_P1;HPM_P2
2023/03/12 00:01:10;;;;;;;;;;;;;;;8.55;100.00;100200.19;7361667;19;20270;-61
2023/03/12 00:03:39;;;;;;;;;;;;;;;8.57;100.00;100201.69;7363106;19;19930;-61
2023/03/12 00:06:07;;;;;;;;;;;;;;;8.57;100.00;100203.50;7362515;19;20356;-58
2023/03/12 00:08:37;;;;;;;;;;;;;;;8.60;100.00;100195.31;7362044;19;19918;-65
2023/03/12 00:11:05;;;;;;;;;;;;;;;8.64;100.00;100201.03;7349822;19;19940;-62
2023/03/12 00:13:32;;;;;;;;;;;;;;;8.66;100.00;100191.25;7356526;19;19918;-60
2023/03/12 00:16:03;;;;;;;;;;;;;;;8.69;100.00;100185.66;7361273;19;19925;-62
2023/03/12 00:18:30;;;;;;;;;;;;;;;8.73;100.00;100179.16;7360056;19;19935;-60
2023/03/12 00:20:57;;;;;;;;;;;;;;;8.71;100.00;100187.16;7363671;19;19923;-58
2023/03/12 00:23:25;;;;;;;;;;;;;;;8.72;100.00;100180.97;7361389;19;20381;-60
2023/03/12 00:25:52;;;;;;;;;;;;;;;8.75;100.00;100175.38;7362045;19;20355;-62
2023/03/12 00:28:19;;;;;;;;;;;;;;;8.77;100.00;100175.22;7359381;19;19918;-60
2023/03/12 00:30:46;;;;;;;;;;;;;;;8.79;100.00;100171.47;7363470;19;19934;-61
2023/03/12 00:33:14;;;;;;;;;;;;;;;8.81;100.00;100169.50;7360364;19;20314;-59
2023/03/12 00:35:41;;;;;;;;;;;;;;;8.83;100.00;100172.00;7349777;19;19911;-57
2023/03/12 00:38:08;;;;;;;;;;;;;;;8.87;100.00;100171.50;7362004;19;19923;-60
2023/03/12 00:40:35;;;;;;;;;;;;;;;8.89;100.00;100172.16;7361298;19;19930;-61
2023/03/12 00:43:02;;;;;;;;;;;;;;;8.92;100.00;100171.03;7361714;19;21482;-56
2023/03/12 00:45:29;;;;;;;;;;;;;;;8.95;100.00;100174.16;7359845;19;21551;-60
2023/03/12 00:47:56;;;;;;;;;;;;;;;9.00;100.00;100177.13;7360532;19;20516;-59
2023/03/12 00:50:24;;;;;;;;;;;;;;;9.04;100.00;100179.44;7363109;19;20366;-57
2023/03/12 00:52:51;;;;;;;;;;;;;;;9.09;100.00;100174.53;7361951;19;20324;-59
2023/03/12 00:55:18;;;;;;;;;;;;;;;9.14;100.00;100180.13;7360722;19;20259;-60
2023/03/12 00:57:45;;;;;;;;;;;;;;;9.15;100.00;100176.50;7364828;19;20003;-60
2023/03/12 01:00:13;;;;;;;;;;;;;;;9.16;100.00;100178.16;7359915;19;19923;-61
2023/03/12 01:02:40;;;;;;;;;;;;;;;9.16;100.00;100178.97;7348692;19;19941;-56
2023/03/12 01:05:09;;;;;;;;;;;;;;;9.20;100.00;100187.34;7358974;19;20633;-60
2023/03/12 01:07:37;;;;;;;;;;;;;;;9.23;100.00;100173.91;7357328;19;19926;-60
2023/03/12 01:10:05;;;;;;;;;;;;;;;9.27;100.00;100188.34;7356600;19;19994;-60
2023/03/12 01:12:33;;;;;;;;;;;;;;;9.28;100.00;100190.84;7361456;19;20313;-58
2023/03/12 01:15:00;;;;;;;;;;;;;;;9.28;100.00;100172.47;7355391;19;19956;-61
2023/03/12 01:17:27;;;;;;;;;;;;;;;9.33;100.00;100177.22;7355204;19;19953;-63
2023/03/12 01:19:55;;;;;;;;;;;;;;;9.36;100.00;100174.25;7360202;19;19930;-57
2023/03/12 01:22:22;;;;;;;;;;;;;;;9.38;100.00;100167.06;7358437;19;19922;-58
2023/03/12 01:24:49;;;;;;;;;;;;;;;9.41;100.00;100167.56;7358741;19;20397;-61
2023/03/12 01:27:16;;;;;;;;;;;;;;;9.45;100.00;100173.28;7346385;19;20497;-61
2023/03/12 01:29:43;;;;;;;;;;;;;;;9.45;100.00;100168.84;7359801;19;19974;-62
2023/03/12 01:32:11;;;;;;;;;;;;;;;9.49;100.00;100161.50;7360849;19;20386;-60
2023/03/12 01:34:38;;;;;;;;;;;;;;;9.50;100.00;100165.75;7355991;19;20158;-59
2023/03/12 01:37:06;;;;;;;;;;;;;;;9.54;100.00;100159.22;7357151;19;19919;-58
2023/03/12 01:39:33;;;;;;;;;;;;;;;9.59;100.00;100164.78;7357107;19;19925;-59
2023/03/12 01:42:00;;;;;;;;;;;;;;;9.61;100.00;100168.06;7359329;19;19919;-61
2023/03/12 01:44:28;;;;;;;;;;;;;;;9.64;100.00;100172.19;7358573;19;19923;-61
2023/03/12 01:46:55;;;;;;;;;;;;;;;9.64;100.00;100159.88;7358373;19;20715;-63
2023/03/12 01:49:24;;;;;;;;;;;;;;;9.65;100.00;100153.63;7357262;19;20513;-61
2023/03/12 01:51:55;;;;;;;;;;;;;;;9.66;100.00;100146.56;7358229;19;19923;-60
2023/03/12 01:54:26;;;;;;;;;;;;;;;9.67;100.00;100151.66;7343141;19;19933;-63
2023/03/12 01:56:55;;;;;;;;;;;;;;;9.68;100.00;100153.31;7359410;19;19922;-59
2023/03/12 01:59:24;;;;;;;;;;;;;;;9.71;100.00;100158.22;7359393;19;19926;-60
2023/03/12 02:01:51;;;;;;;;;;;;;;;9.76;100.00;100160.34;7358767;19;20435;-60
2023/03/12 02:04:20;;;;;;;;;;;;;;;9.77;100.00;100168.06;7359103;19;19952;-62
2023/03/12 02:06:50;;;;;;;;;;;;;;;9.81;100.00;100165.94;7358817;19;19927;-60
2023/03/12 02:09:19;;;;;;;;;;;;;;;9.82;100.00;100165.78;7353922;19;19922;-63
2023/03/12 02:11:46;;;;;;;;;;;;;;;9.86;100.00;100174.97;7359401;19;19918;-58
2023/03/12 02:14:13;;;;;;;;;;;;;;;9.85;100.00;100170.69;7348512;19;19926;-61
2023/03/12 02:16:41;;;;;;;;;;;;;;;9.88;100.00;100187.94;7353353;19;19959;-61
2023/03/12 02:19:15;;;;;;;;;;;;;;;9.90;100.00;100186.00;7355708;19;19960;-59
2023/03/12 02:21:42;;;;;;;;;;;;;;;9.90;100.00;100175.47;7356962;19;20710;-61
2023/03/12 02:24:12;;;;;;;;;;;;;;;9.95;100.00;100177.63;7356673;19;20009;-60
2023/03/12 02:26:40;;;;;;;;;;;;;;;9.97;100.00;100180.88;7358890;19;19918;-62
2023/03/12 02:29:09;;;;;;;;;;;;;;;9.96;100.00;100176.59;7354384;19;19945;-63
2023/03/12 02:31:40;;;;;;;;;;;;;;;9.96;100.00;100179.22;7356375;19;19918;-61
2023/03/12 02:34:08;;;;;;;;;;;;;;;9.97;100.00;100183.50;7356532;19;20401;-56
2023/03/12 02:36:35;;;;;;;;;;;;;;;9.97;100.00;100173.81;7358448;19;20010;-61
2023/03/12 02:39:03;;;;;;;;;;;;;;;9.97;100.00;100173.81;7354976;19;19925;-62
2023/03/12 02:41:31;;;;;;;;;;;;;;;9.99;100.00;100166.59;7356073;19;20355;-60
2023/03/12 02:44:02;;;;;;;;;;;;;;;10.04;100.00;100160.84;7355500;19;19915;-60
2023/03/12 02:46:32;;;;;;;;;;;;;;;10.04;100.00;100163.47;7356152;19;20611;-59
2023/03/12 02:49:00;;;;;;;;;;;;;;;10.03;100.00;100162.66;7352628;19;20368;-59
2023/03/12 02:51:27;;;;;;;;;;;;;;;10.04;100.00;100160.84;7356610;19;19963;-59
2023/03/12 02:53:54;;;;;;;;;;;;;;;10.06;100.00;100166.75;7355431;19;19931;-61
2023/03/12 02:56:22;;;;;;;;;;;;;;;10.07;100.00;100163.13;7358356;19;19937;-57
2023/03/12 02:58:49;;;;;;;;;;;;;;;10.10;100.00;100163.63;7357950;19;20367;-61
2023/03/12 03:01:17;;;;;;;;;;;;;;;10.11;100.00;100169.69;7360564;19;19983;-60
2023/03/12 03:03:44;;;;;;;;;;;;;;;10.13;100.00;100173.00;7352264;19;19923;-62
2023/03/12 03:06:13;;;;;;;;;;;;;;;10.13;100.00;100180.88;7356823;19;20302;-61
2023/03/12 03:08:40;;;;;;;;;;;;;;;10.16;100.00;100176.13;7350322;19;19939;-60
2023/03/12 03:11:08;;;;;;;;;;;;;;;10.20;100.00;100184.53;7358083;19;19922;-60
2023/03/12 03:13:35;;;;;;;;;;;;;;;10.22;100.00;100183.34;7354608;19;20006;-59
2023/03/12 03:16:03;;;;;;;;;;;;;;;10.25;100.00;100180.41;7354590;19;20255;-58
2023/03/12 03:18:30;;;;;;;;;;;;;;;10.27;100.00;100181.03;7349839;19;19922;-58
2023/03/12 03:20:59;;;;;;;;;;;;;;;10.27;100.00;100177.59;7356493;19;19926;-58
2023/03/12 03:23:26;;;;;;;;;;;;;;;10.30;100.00;100174.66;7354882;19;19923;-61
2023/03/12 03:25:53;;;;;;;;;;;;;;;10.30;100.00;100174.66;7354500;19;20278;-62
2023/03/12 03:28:22;;;;;;;;;;;;;;;10.32;100.00;100169.19;7354301;19;19986;-60
2023/03/12 03:30:51;;;;;;;;;;;;;;;10.31;100.00;100168.38;7354667;19;20547;-61
2023/03/12 03:33:19;;;;;;;;;;;;;;;10.29;100.00;100179.09;7355542;19;19930;-60
2023/03/12 03:35:46;;;;;;;;;;;;;;;10.28;100.00;100182.69;7355946;19;20035;-59
2023/03/12 03:38:14;;;;;;;;;;;;;;;10.26;100.00;100197.81;7355241;19;19922;-62
2023/03/12 03:40:41;;;;;;;;;;;;;;;10.23;100.00;100198.16;7356820;19;20492;-60
2023/03/12 03:43:08;;;;;;;;;;;;;;;10.20;100.00;100197.66;7357929;19;20324;-61
2023/03/12 03:45:36;;;;;;;;;;;;;;;10.16;100.00;100191.91;7357029;19;19933;-60
2023/03/12 03:48:04;;;;;;;;;;;;;;;10.12;100.00;100203.72;7357229;19;20268;-60
2023/03/12 03:50:31;;;;;;;;;;;;;;;10.10;100.00;100210.13;7355315;19;19946;-60
2023/03/12 03:52:58;;;;;;;;;;;;;;;10.07;100.00;100215.69;7355911;19;19974;-65
2023/03/12 03:55:25;;;;;;;;;;;;;;;10.04;100.00;100224.75;7355786;19;19930;-58
2023/03/12 03:57:53;;;;;;;;;;;;;;;10.04;100.00;100222.13;7366148;19;19955;-63
2023/03/12 04:00:20;;;;;;;;;;;;;;;10.06;100.00;100232.44;7365510;19;19915;-61
2023/03/12 04:02:48;;;;;;;;;;;;;;;10.05;100.00;100236.09;7366482;19;19922;-60
2023/03/12 04:05:18;;;;;;;;;;;;;;;10.04;100.00;100231.81;7364770;19;19969;-57
2023/03/12 04:07:45;;;;;;;;;;;;;;;10.03;100.00;100244.13;7364764;19;19933;-61
2023/03/12 04:10:13;;;;;;;;;;;;;;;10.01;100.00;100245.25;7362844;19;20022;-61
2023/03/12 04:12:40;;;;;;;;;;;;;;;9.99;100.00;100250.69;7363182;19;20645;-60
2023/03/12 04:15:08;;;;;;;;;;;;;;;9.96;100.00;100243.13;7364203;19;19974;-60
2023/03/12 04:17:35;;;;;;;;;;;;;;;9.97;100.00;100257.09;7363911;19;19915;-58
2023/03/12 04:20:06;;;;;;;;;;;;;;;9.94;100.00;100260.06;7362571;19;19918;-59
2023/03/12 04:22:33;;;;;;;;;;;;;;;9.93;100.00;100258.41;7360997;19;19919;-60
2023/03/12 04:25:00;;;;;;;;;;;;;;;9.91;100.00;100255.94;7359179;19;20290;-59
2023/03/12 04:27:28;;;;;;;;;;;;;;;9.88;100.00;100251.00;7363298;19;20617;-59
2023/03/12 04:29:55;;;;;;;;;;;;;;;9.86;100.00;100245.91;7365369;19;20164;-60
2023/03/12 04:32:22;;;;;;;;;;;;;;;9.85;100.00;100240.84;7361475;19;19994;-61
2023/03/12 04:34:49;;;;;;;;;;;;;;;9.84;100.00;100239.19;7359840;19;20349;-59
2023/03/12 04:37:17;;;;;;;;;;;;;;;9.82;100.00;100241.97;7361895;19;19922;-62
2023/03/12 04:39:44;;;;;;;;;;;;;;;9.81;100.00;100250.00;7361334;19;19918;-63
2023/03/12 04:42:11;;;;;;;;;;;;;;;9.78;100.00;100251.16;7365738;19;19961;-60
2023/03/12 04:44:39;;;;;;;;;;;;;;;9.78;100.00;100253.78;7364197;19;19922;-58
2023/03/12 04:47:06;;;;;;;;;;;;;;;9.77;100.00;100269.72;7362975;19;20450;-60
2023/03/12 04:49:34;;;;;;;;;;;;;;;9.76;100.00;100271.50;7364039;19;21063;-62
2023/03/12 04:52:01;;;;;;;;;;;;;;;9.74;100.00;100276.13;7361155;19;19926;-62
2023/03/12 04:54:30;;;;;;;;;;;;;;;9.74;100.00;100283.19;7361294;19;19941;-60
2023/03/12 04:56:57;;;;;;;;;;;;;;;9.73;100.00;100284.97;7362681;19;19926;-60
2023/03/12 04:59:25;;;;;;;;;;;;;;;9.76;100.00;100299.59;7361608;19;20322;-60
2023/03/12 05:01:52;;;;;;;;;;;;;;;9.76;100.00;100299.59;7365630;19;19919;-60
2023/03/12 05:04:19;;;;;;;;;;;;;;;9.74;100.00;100297.13;7362737;19;19919;-58
2023/03/12 05:06:46;;;;;;;;;;;;;;;9.75;100.00;100303.22;7364712;19;19914;-62
2023/03/12 05:09:13;;;;;;;;;;;;;;;9.74;100.00;100304.19;7358579;19;19919;-60
2023/03/12 05:11:41;;;;;;;;;;;;;;;9.76;100.00;100296.97;7363900;19;19996;-59
2023/03/12 05:14:10;;;;;;;;;;;;;;;9.74;100.00;100298.94;7361732;19;20368;-61
2023/03/12 05:16:37;;;;;;;;;;;;;;;9.73;100.00;100295.50;7359949;19;20575;-57
2023/03/12 05:19:05;;;;;;;;;;;;;;;9.72;100.00;100301.72;7359270;19;20521;-59
2023/03/12 05:21:32;;;;;;;;;;;;;;;9.71;100.00;100307.94;7362737;19;20372;-61
2023/03/12 05:23:59;;;;;;;;;;;;;;;9.70;100.00;100311.56;7359312;19;19936;-60
2023/03/12 05:26:30;;;;;;;;;;;;;;;9.71;100.00;100320.25;7363394;19;19945;-60
2023/03/12 05:28:58;;;;;;;;;;;;;;;9.71;100.00;100322.88;7360107;19;21112;-59
2023/03/12 05:31:25;;;;;;;;;;;;;;;9.71;100.00;100325.50;7360700;19;19919;-60
2023/03/12 05:33:53;;;;;;;;;;;;;;;9.71;100.00;100315.81;7359500;19;20001;-60
2023/03/12 05:36:20;;;;;;;;;;;;;;;9.70;100.00;100329.16;7362466;19;19923;-62
2023/03/12 05:38:47;;;;;;;;;;;;;;;9.69;100.00;100345.88;7356258;19;19925;-58
2023/03/12 05:41:19;;;;;;;;;;;;;;;9.70;100.00;100350.16;7361291;19;19922;-60
2023/03/12 05:43:46;;;;;;;;;;;;;;;9.71;100.00;100338.63;7360517;19;19986;-61
2023/03/12 05:46:14;;;;;;;;;;;;;;;9.72;100.00;100349.00;7359727;19;19966;-57
2023/03/12 05:48:41;;;;;;;;;;;;;;;9.72;100.00;100348.19;7356632;19;20280;-62
2023/03/12 05:51:09;;;;;;;;;;;;;;;9.71;100.00;100328.97;7359618;19;19919;-60
2023/03/12 05:53:36;;;;;;;;;;;;;;;9.71;100.00;100328.13;7356203;19;20320;-59
2023/03/12 05:56:04;;;;;;;;;;;;;;;9.70;100.00;100326.50;7360319;19;19915;-62
2023/03/12 05:58:32;;;;;;;;;;;;;;;9.67;100.00;100319.75;7359504;19;19947;-59
2023/03/12 06:01:00;;;;;;;;;;;;;;;9.67;100.00;100319.75;7361766;19;19941;-61
2023/03/12 06:03:27;;;;;;;;;;;;;;;9.65;100.00;100326.97;7359634;19;20341;-59
2023/03/12 06:05:55;;;;;;;;;;;;;;;9.66;100.00;100319.91;7362230;19;20014;-60
2023/03/12 06:08:23;;;;;;;;;;;;;;;9.65;100.00;100321.72;7358666;19;19919;-62
2023/03/12 06:10:52;;;;;;;;;;;;;;;9.65;100.00;100326.97;7360639;19;20152;-60
2023/03/12 06:13:21;;;;;;;;;;;;;;;9.65;100.00;100324.34;7358244;19;19995;-63
2023/03/12 06:15:48;;;;;;;;;;;;;;;9.63;100.00;100315.00;7357806;19;20208;-59
2023/03/12 06:18:15;;;;;;;;;;;;;;;9.64;100.00;100314.00;7358032;19;19921;-60
2023/03/12 06:20:43;;;;;;;;;;;;;;;9.61;100.00;100309.06;7361097;19;19925;-58
2023/03/12 06:23:10;;;;;;;;;;;;;;;9.59;100.00;100306.63;7361530;19;19919;-58
2023/03/12 06:25:37;;;;;;;;;;;;;;;9.57;100.00;100315.63;7359082;19;19929;-60
2023/03/12 06:28:05;;;;;;;;;;;;;;;9.55;100.00;100317.59;7356917;19;20629;-61
2023/03/12 06:30:32;;;;;;;;;;;;;;;9.56;100.00;100320.03;7360818;19;19941;-61
2023/03/12 06:32:59;;;;;;;;;;;;;;;9.54;100.00;100324.66;7359863;19;19919;-59
2023/03/12 06:35:26;;;;;;;;;;;;;;;9.54;100.00;100332.53;7359615;19;20492;-61
2023/03/12 06:37:53;;;;;;;;;;;;;;;9.55;100.00;100331.53;7360361;19;20965;-61
2023/03/12 06:40:20;;;;;;;;;;;;;;;9.55;100.00;100326.28;7358990;19;20217;-60
2023/03/12 06:42:48;;;;;;;;;;;;;;;9.58;100.00;100333.84;7358581;19;20538;-62
2023/03/12 06:45:15;;;;;;;;;;;;;;;9.60;100.00;100337.13;7359762;19;20386;-61
2023/03/12 06:47:43;;;;;;;;;;;;;;;9.62;100.00;100347.47;7359080;19;20855;-61
2023/03/12 06:50:10;;;;;;;;;;;;;;;9.63;100.00;100364.91;7357403;19;20343;-65
2023/03/12 06:52:39;;;;;;;;;;;;;;;9.63;100.00;100370.97;7359265;19;19974;-61
2023/03/12 06:55:06;;;;;;;;;;;;;;;9.67;100.00;100380.19;7359000;19;19933;-59
2023/03/12 06:57:33;;;;;;;;;;;;;;;9.70;100.00;100376.44;7358014;19;19922;-61
2023/03/12 07:00:01;;;;;;;;;;;;;;;9.72;100.00;100372.66;7358715;19;19930;-61
2023/03/12 07:02:29;;;;;;;;;;;;;;;9.73;100.00;100378.72;7354318;19;19922;-60
2023/03/12 07:04:56;;;;;;;;;;;;;;;9.76;100.00;100379.22;7356610;19;20364;-60
2023/03/12 07:07:24;;;;;;;;;;;;;;;9.82;100.00;100381.22;7355981;19;20024;-60
2023/03/12 07:09:51;;;;;;;;;;;;;;;9.86;100.00;100372.03;7354950;19;19915;-61
2023/03/12 07:12:18;;;;;;;;;;;;;;;9.94;100.00;100365.16;7357206;19;20411;-60
2023/03/12 07:14:45;;;;;;;;;;;;;;;10.01;100.00;100364.34;7358462;19;19915;-60
2023/03/12 07:17:13;;;;;;;;;;;;;;;10.09;100.00;100359.13;7355484;19;19925;-60
2023/03/12 07:19:40;;;;;;;;;;;;;;;10.13;99.63;100370.13;7359083;19;19914;-61
2023/03/12 07:22:07;;;;;;;;;;;;;;;10.16;99.23;100375.09;7359792;19;19923;-62
2023/03/12 07:24:34;;;;;;;;;;;;;;;10.19;99.28;100386.13;7358683;19;19919;-62
2023/03/12 07:27:02;;;;;;;;;;;;;;;10.28;99.34;100376.44;7359070;19;20328;-59
2023/03/12 07:29:30;;;;;;;;;;;;;;;10.39;98.78;100377.94;7356197;19;19919;-63
2023/03/12 07:31:57;;;;;;;;;;;;;;;10.44;98.35;100383.53;7363140;19;19915;-60
2023/03/12 07:34:24;;;;;;;;;;;;;;;10.52;97.71;100384.34;7364091;19;21526;-62
2023/03/12 07:36:51;;;;;;;;;;;;;;;10.59;97.35;100374.00;7367400;19;19934;-58
2023/03/12 07:39:19;;;;;;;;;;;;;;;10.68;96.74;100371.19;7366276;19;19962;-59
2023/03/12 07:41:46;;;;;;;;;;;;;;;10.83;96.04;100379.25;7364794;19;19968;-61
2023/03/12 07:44:13;;;;;;;;;;;;;;;10.96;95.35;100376.13;7365856;19;20024;-60
2023/03/12 07:46:41;;;;;;;;;;;;;;;11.12;94.82;100397.97;7365215;19;19919;-59
2023/03/12 07:49:08;;;;;;;;;;;;;;;11.37;94.55;100414.56;7362714;19;19923;-57
2023/03/12 07:51:36;;;;;;;;;;;;;;;11.80;93.20;100400.13;7362880;19;20256;-54
2023/03/12 07:54:03;;;;;;;;;;;;;;;12.02;90.77;100417.00;7362314;19;20248;-60
2023/03/12 07:56:30;;;;;;;;;;;;;;;12.15;89.77;100400.59;7365007;19;20287;-60
2023/03/12 07:59:00;;;;;;;;;;;;;;;12.07;88.17;100392.75;7363986;19;20906;-57
2023/03/12 08:01:30;;;;;;;;;;;;;;;11.95;88.39;100394.94;7365586;19;19929;-60
2023/03/12 08:03:58;;;;;;;;;;;;;;;11.88;88.83;100401.91;7365212;19;19926;-62
2023/03/12 08:06:26;;;;;;;;;;;;;;;11.83;89.44;100406.88;7363816;19;20328;-60
2023/03/12 08:08:53;;;;;;;;;;;;;;;11.81;89.94;100412.31;7360402;19;19926;-60
2023/03/12 08:11:21;;;;;;;;;;;;;;;11.81;90.24;100424.66;7362660;19;19919;-60
2023/03/12 08:13:48;;;;;;;;;;;;;;;11.79;89.74;100419.56;7362886;19;19922;-66
2023/03/12 08:16:15;;;;;;;;;;;;;;;11.80;90.34;100423.03;7364546;19;19943;-60
2023/03/12 08:18:43;;;;;;;;;;;;;;;11.89;90.52;100425.44;7362421;19;19930;-57
2023/03/12 08:21:10;;;;;;;;;;;;;;;11.98;89.79;100429.72;7361464;19;19922;-61
2023/03/12 08:23:40;;;;;;;;;;;;;;;11.99;90.02;100426.06;7360919;19;19927;-62
2023/03/12 08:26:07;;;;;;;;;;;;;;;11.98;90.03;100413.91;7365755;19;19930;-60
2023/03/12 08:28:34;;;;;;;;;;;;;;;12.12;90.11;100414.16;7362769;19;19926;-61
2023/03/12 08:31:02;;;;;;;;;;;;;;;12.21;88.99;100413.09;7363315;19;19958;-64
2023/03/12 08:33:29;;;;;;;;;;;;;;;12.18;88.25;100409.00;7358758;19;20400;-61
2023/03/12 08:35:56;;;;;;;;;;;;;;;12.15;89.16;100425.16;7364752;19;20031;-62
2023/03/12 08:38:23;;;;;;;;;;;;;;;12.13;89.60;100416.63;7360907;19;19924;-60
2023/03/12 08:40:53;;;;;;;;;;;;;;;12.14;89.56;100409.53;7364803;19;20416;-62
2023/03/12 08:43:20;;;;;;;;;;;;;;;12.19;90.47;100413.25;7360212;19;19911;-62
2023/03/12 08:45:52;;;;;;;;;;;;;;;12.23;90.15;100419.03;7366792;19;19923;-58
2023/03/12 08:48:19;;;;;;;;;;;;;;;12.20;90.24;100427.28;7361659;19;19966;-62
2023/03/12 08:50:46;;;;;;;;;;;;;;;12.16;88.65;100424.19;7366851;19;19938;-58
2023/03/12 08:53:14;;;;;;;;;;;;;;;12.18;89.12;100432.75;7358435;19;19960;-62
2023/03/12 08:55:41;;;;;;;;;;;;;;;12.27;89.58;100438.78;7362073;19;19926;-60
2023/03/12 08:58:08;;;;;;;;;;;;;;;12.30;88.26;100438.44;7361420;19;20458;-60
2023/03/12 09:00:35;;;;;;;;;;;;;;;12.34;88.68;100432.63;7360113;19;20204;-60
2023/03/12 09:03:02;;;;;;;;;;;;;;;12.43;88.53;100433.44;7362503;19;19949;-60
2023/03/12 09:05:30;;;;;;;;;;;;;;;12.49;88.36;100431.91;7360589;19;20038;-60
2023/03/12 09:07:57;;;;;;;;;;;;;;;12.56;88.07;100440.75;7361098;19;20369;-60
2023/03/12 09:10:25;;;;;;;;;;;;;;;12.53;87.33;100438.47;7359753;19;19922;-60
2023/03/12 09:12:56;;;;;;;;;;;;;;;12.44;86.44;100433.22;7365180;19;20268;-59
2023/03/12 09:15:23;;;;;;;;;;;;;;;12.40;87.10;100439.03;7362369;19;19927;-61
2023/03/12 09:17:50;;;;;;;;;;;;;;;12.37;86.52;100432.31;7354417;19;19923;-60
2023/03/12 09:20:17;;;;;;;;;;;;;;;12.37;87.33;100434.94;7360975;19;19930;-61
2023/03/12 09:22:44;;;;;;;;;;;;;;;12.40;87.50;100439.03;7361926;19;19998;-59
2023/03/12 09:25:12;;;;;;;;;;;;;;;12.47;87.60;100450.56;7358688;19;19922;-59
2023/03/12 09:27:40;;;;;;;;;;;;;;;12.54;87.40;100448.03;7361272;19;20015;-58
2023/03/12 09:30:11;;;;;;;;;;;;;;;12.57;87.70;100440.59;7358687;19;19923;-61
2023/03/12 09:32:38;;;;;;;;;;;;;;;12.62;87.73;100443.53;7359698;19;19940;-63
2023/03/12 09:35:06;;;;;;;;;;;;;;;12.67;86.41;100449.09;7362696;19;20340;-61
2023/03/12 09:37:33;;;;;;;;;;;;;;;12.71;85.78;100453.03;7359440;19;20006;-60
2023/03/12 09:40:00;;;;;;;;;;;;;;;12.69;85.03;100449.75;7360351;19;20629;-62
2023/03/12 09:42:31;;;;;;;;;;;;;;;12.77;85.15;100452.31;7359390;19;19918;-61
2023/03/12 09:45:01;;;;;;;;;;;;;;;12.84;84.57;100447.16;7361860;19;19922;-61
2023/03/12 09:47:29;;;;;;;;;;;;;;;12.85;84.35;100446.97;7360073;19;20533;-61
2023/03/12 09:50:00;;;;;;;;;;;;;;;12.89;84.49;100444.81;7358707;19;20320;-59
2023/03/12 09:52:29;;;;;;;;;;;;;;;12.91;83.75;100452.53;7359940;19;20243;-60
2023/03/12 09:54:59;;;;;;;;;;;;;;;12.94;84.31;100447.75;7356204;19;19926;-59
2023/03/12 09:57:28;;;;;;;;;;;;;;;12.98;84.22;100443.75;7361625;19;19945;-62
2023/03/12 09:59:56;;;;;;;;;;;;;;;12.96;83.56;100448.38;7360888;19;20025;-62
2023/03/12 10:02:23;;;;;;;;;;;;;;;12.95;83.38;100449.41;7359139;19;19923;-63
2023/03/12 10:04:55;;;;;;;;;;;;;;;12.96;83.45;100445.72;7358584;19;19926;-59
2023/03/12 10:07:28;;;;;;;;;;;;;;;12.99;83.04;100432.19;7360829;19;19919;-61
2023/03/12 10:09:59;;;;;;;;;;;;;;;13.00;82.87;100430.38;7358438;19;20017;-60
2023/03/12 10:12:33;;;;;;;;;;;;;;;13.03;83.15;100435.28;7360947;19;19927;-60
2023/03/12 10:15:03;;;;;;;;;;;;;;;13.07;82.96;100429.47;7359735;19;19930;-62
2023/03/12 10:17:34;;;;;;;;;;;;;;;13.09;83.01;100432.75;7359252;19;19922;-62
2023/03/12 10:20:02;;;;;;;;;;;;;;;13.10;82.87;100429.13;7359512;19;19990;-61
2023/03/12 10:22:31;;;;;;;;;;;;;;;13.10;82.33;100426.47;7360726;19;19919;-61
2023/03/12 10:24:59;;;;;;;;;;;;;;;13.13;82.06;100426.16;7357339;19;19927;-62
2023/03/12 10:27:28;;;;;;;;;;;;;;;13.17;82.65;100421.31;7360872;19;20424;-60
2023/03/12 10:29:56;;;;;;;;;;;;;;;13.15;81.83;100416.22;7361864;19;20234;-59
2023/03/12 10:32:26;;;;;;;;;;;;;;;13.12;81.04;100413.94;7359851;19;20046;-56
2023/03/12 10:34:55;;;;;;;;;;;;;;;13.17;81.84;100413.38;7362590;19;19946;-62
2023/03/12 10:37:25;;;;;;;;;;;;;;;13.23;81.86;100417.97;7356491;19;19926;-60
2023/03/12 10:39:54;;;;;;;;;;;;;;;13.31;81.69;100404.66;7359992;19;21494;-60
2023/03/12 10:42:23;;;;;;;;;;;;;;;13.32;80.85;100416.88;7356407;19;19919;-61
2023/03/12 10:44:52;;;;;;;;;;;;;;;13.33;81.48;100421.16;7357135;19;19918;-61
2023/03/12 10:47:22;;;;;;;;;;;;;;;13.32;80.68;100414.22;7359008;19;19947;-60
2023/03/12 10:49:50;;;;;;;;;;;;;;;13.27;80.84;100420.06;7359011;19;19922;-61
2023/03/12 10:52:19;;;;;;;;;;;;;;;13.27;81.04;100409.50;7353061;19;19910;-63
2023/03/12 10:54:47;;;;;;;;;;;;;;;13.26;80.81;100407.84;7357988;19;19943;-60
2023/03/12 10:57:15;;;;;;;;;;;;;;;13.29;80.75;100411.97;7359692;19;19922;-61
2023/03/12 10:59:44;;;;;;;;;;;;;;;13.36;81.26;100414.72;7361169;19;19923;-62
2023/03/12 11:02:14;;;;;;;;;;;;;;;13.42;80.92;100404.22;7358530;19;20900;-61
2023/03/12 11:04:49;;;;;;;;;;;;;;;13.47;80.37;100401.03;7362080;19;21803;-61
2023/03/12 11:07:20;;;;;;;;;;;;;;;13.55;80.67;100415.00;7372740;19;20382;-62
2023/03/12 11:10:03;;;;;;;;;;;;;;;13.60;80.36;100409.16;7361297;19;19982;-61
2023/03/12 11:12:30;;;;;;;;;;;;;;;13.69;79.52;100402.75;7363074;19;19918;-61
2023/03/12 11:14:57;;;;;;;;;;;;;;;13.73;80.08;100403.19;7365232;19;19930;-61
2023/03/12 11:17:26;;;;;;;;;;;;;;;13.79;81.31;100405.13;7372678;19;19923;-62
2023/03/12 11:19:53;;;;;;;;;;;;;;;13.83;80.36;100390.50;7372431;19;19951;-68
2023/03/12 11:22:23;;;;;;;;;;;;;;;13.80;79.37;100385.59;7375951;19;20640;-58
2023/03/12 11:24:54;;;;;;;;;;;;;;;13.82;79.41;100397.63;7372691;19;19926;-59
2023/03/12 11:27:29;;;;;;;;;;;;;;;13.87;79.10;100394.44;7374277;19;19922;-60
2023/03/12 11:29:56;;;;;;;;;;;;;;;13.88;79.22;100404.00;7367579;19;19982;-61
2023/03/12 11:32:28;;;;;;;;;;;;;;;13.97;79.50;100400.25;7373073;19;19998;-62
2023/03/12 11:34:55;;;;;;;;;;;;;;;13.99;78.21;100401.72;7367034;19;20265;-60
2023/03/12 11:37:25;;;;;;;;;;;;;;;14.03;78.40;100402.97;7371568;19;19977;-63
2023/03/12 11:39:54;;;;;;;;;;;;;;;14.00;78.64;100400.72;7369731;19;20506;-59
2023/03/12 11:42:22;;;;;;;;;;;;;;;14.00;78.55;100406.00;7371020;19;19919;-61
2023/03/12 11:44:52;;;;;;;;;;;;;;;13.91;78.49;100399.19;7372764;19;19930;-61
2023/03/12 11:47:19;;;;;;;;;;;;;;;13.88;77.87;100401.34;7369439;19;20395;-60
2023/03/12 11:49:56;;;;;;;;;;;;;;;13.81;77.83;100401.31;7372578;19;20308;-61
2023/03/12 11:52:30;;;;;;;;;;;;;;;13.80;78.30;100398.84;7368511;19;19928;-61
2023/03/12 11:55:00;;;;;;;;;;;;;;;13.77;77.79;100394.72;7368386;19;20513;-62
2023/03/12 11:57:27;;;;;;;;;;;;;;;13.81;79.40;100395.19;7373508;19;21183;-60
2023/03/12 11:59:59;;;;;;;;;;;;;;;13.78;79.62;100387.59;7372379;19;19919;-62
2023/03/12 12:02:29;;;;;;;;;;;;;;;13.85;80.22;100384.06;7370578;19;19919;-61
2023/03/12 12:04:57;;;;;;;;;;;;;;;13.92;80.62;100379.66;7373716;19;19987;-61
2023/03/12 12:07:27;;;;;;;;;;;;;;;13.95;79.08;100383.75;7380172;19;20518;-61
2023/03/12 12:09:58;;;;;;;;;;;;;;;14.03;80.77;100373.06;7374741;19;19934;-61
2023/03/12 12:12:28;;;;;;;;;;;;;;;14.10;79.47;100371.31;7372768;19;20838;-62
2023/03/12 12:15:02;;;;;;;;;;;;;;;14.16;78.93;100369.75;7370471;19;19915;-60
2023/03/12 12:17:30;;;;;;;;;;;;;;;14.17;77.85;100374.84;7366202;19;19927;-58
2023/03/12 12:19:58;;;;;;;;;;;;;;;14.17;77.50;100369.53;7363268;19;19966;-62
2023/03/12 12:22:28;;;;;;;;;;;;;;;14.20;77.46;100371.00;7363537;19;19922;-58
2023/03/12 12:25:02;;;;;;;;;;;;;;;14.19;77.44;100366.72;7358501;19;20348;-62
2023/03/12 12:27:34;;;;;;;;;;;;;;;14.22;78.21;100353.91;7363631;19;19933;-61
2023/03/12 12:30:09;;;;;;;;;;;;;;;14.28;78.44;100363.75;7362614;19;19930;-61
2023/03/12 12:32:39;;;;;;;;;;;;;;;14.34;78.06;100357.72;7362266;19;19927;-57
2023/03/12 12:35:09;;;;;;;;;;;;;;;14.42;77.81;100347.06;7364190;19;20348;-60
2023/03/12 12:37:41;;;;;;;;;;;;;;;14.48;77.12;100334.84;7363400;19;20296;-63
2023/03/12 12:40:09;;;;;;;;;;;;;;;14.49;76.63;100329.38;7363486;19;21816;-59